createdAt,value
2022-10-26T00:02:15.461Z,9.70
2022-10-26T00:04:47.753Z,10.90
2022-10-26T00:07:17.386Z,10.60
2022-10-26T00:09:47.178Z,9.73
2022-10-26T00:12:16.710Z,10.23
2022-10-26T00:14:46.177Z,10.10
2022-10-26T00:17:18.774Z,10.30
2022-10-26T00:19:50.849Z,10.07
2022-10-26T00:22:20.350Z,9.80
2022-10-26T00:24:49.828Z,9.97
2022-10-26T00:27:19.325Z,10.70
2022-10-26T00:29:48.867Z,9.63
2022-10-26T00:32:18.314Z,10.50
2022-10-26T00:34:50.387Z,10.20
2022-10-26T00:37:19.778Z,11.00
2022-10-26T00:39:49.266Z,10.37
2022-10-26T00:42:21.792Z,10.50
2022-10-26T00:45:02.666Z,11.97
2022-10-26T00:47:37.489Z,11.30
2022-10-26T00:50:11.912Z,10.97
2022-10-26T00:52:41.842Z,10.53
2022-10-26T00:55:12.058Z,10.33
2022-10-26T00:57:42.166Z,10.63
2022-10-26T01:00:12.611Z,10.80
2022-10-26T01:02:42.222Z,10.70
2022-10-26T01:05:14.724Z,10.33
2022-10-26T01:07:44.637Z,10.20
2022-10-26T01:10:15.251Z,9.60
2022-10-26T01:12:45.179Z,9.80
2022-10-26T01:15:14.939Z,9.57
2022-10-26T01:17:59.107Z,9.97
2022-10-26T01:21:11.598Z,10.90
2022-10-26T01:23:53.422Z,10.13
2022-10-26T01:26:39.082Z,9.70
2022-10-26T01:29:39.237Z,9.93
2022-10-26T01:32:14.421Z,9.20
2022-10-26T01:34:47.577Z,9.80
2022-10-26T01:37:20.541Z,9.43
2022-10-26T01:39:52.747Z,10.40
2022-10-26T01:42:22.650Z,10.77
2022-10-26T01:44:56.334Z,9.83
2022-10-26T01:47:29.112Z,9.60
2022-10-26T01:49:59.667Z,10.23
2022-10-26T01:52:29.419Z,10.23
2022-10-26T01:55:03.654Z,9.40
2022-10-26T01:57:35.855Z,10.30
2022-10-26T02:00:10.731Z,10.67
2022-10-26T02:03:00.544Z,9.60
2022-10-26T02:05:42.174Z,10.10
2022-10-26T02:08:22.920Z,10.47
2022-10-26T02:11:02.834Z,11.10
2022-10-26T02:13:36.525Z,9.90
2022-10-26T02:16:11.809Z,9.67
2022-10-26T02:18:46.658Z,10.87
2022-10-26T02:21:18.749Z,11.50
2022-10-26T02:23:50.210Z,10.60
2022-10-26T02:26:21.599Z,9.90
2022-10-26T02:28:53.798Z,10.43
2022-10-26T02:31:23.770Z,9.60
2022-10-26T02:33:57.148Z,10.50
2022-10-26T02:36:29.687Z,9.50
2022-10-26T02:39:00.211Z,9.90
2022-10-26T02:41:31.206Z,11.30
2022-10-26T02:44:05.294Z,10.93
2022-10-26T02:46:36.343Z,11.13
2022-10-26T02:49:08.641Z,10.67
2022-10-26T02:51:42.901Z,10.87
2022-10-26T02:54:17.188Z,11.03
2022-10-26T02:56:50.150Z,11.47
2022-10-26T02:59:22.047Z,10.37
2022-10-26T03:01:52.989Z,11.37
2022-10-26T03:04:31.190Z,10.47
2022-10-26T03:07:00.865Z,11.40
2022-10-26T03:09:30.897Z,10.23
2022-10-26T03:12:00.277Z,10.80
2022-10-26T03:14:29.789Z,12.67
2022-10-26T03:16:59.189Z,10.97
2022-10-26T03:19:31.138Z,10.63
2022-10-26T03:22:00.532Z,10.97
2022-10-26T03:24:29.908Z,11.53
2022-10-26T03:27:02.067Z,11.47
2022-10-26T03:29:32.249Z,12.00
2022-10-26T03:32:01.602Z,11.90
2022-10-26T03:34:33.583Z,12.13
2022-10-26T03:37:02.983Z,11.93
2022-10-26T03:39:32.366Z,12.50
2022-10-26T03:42:02.199Z,10.67
2022-10-26T03:44:31.591Z,11.50
2022-10-26T03:47:00.960Z,12.17
2022-10-26T03:49:32.900Z,12.10
2022-10-26T03:52:02.295Z,10.93
2022-10-26T03:54:31.662Z,13.57
2022-10-26T03:57:01.021Z,29.57
2022-10-26T03:59:30.399Z,26.23
2022-10-26T04:01:59.843Z,18.20
2022-10-26T04:04:29.366Z,17.00
2022-10-26T04:07:01.429Z,16.30
2022-10-26T04:09:30.826Z,13.50
2022-10-26T04:12:00.173Z,10.40
2022-10-26T04:14:29.573Z,10.50
2022-10-26T04:16:59.025Z,10.43
2022-10-26T04:19:28.401Z,10.77
2022-10-26T04:21:58.044Z,9.70
2022-10-26T04:24:30.093Z,9.77
2022-10-26T04:26:59.476Z,9.60
2022-10-26T04:29:28.864Z,9.33
2022-10-26T04:31:58.275Z,9.60
2022-10-26T04:34:27.705Z,9.70
2022-10-26T04:36:57.829Z,10.20
2022-10-26T04:39:29.892Z,9.83
2022-10-26T04:41:59.266Z,9.50
2022-10-26T04:44:28.629Z,10.67
2022-10-26T04:46:58.006Z,9.80
2022-10-26T04:49:27.389Z,9.20
2022-10-26T04:51:56.810Z,10.37
2022-10-26T04:54:26.209Z,10.17
2022-10-26T04:56:58.143Z,10.33
2022-10-26T04:59:27.528Z,10.20
2022-10-26T05:01:56.953Z,9.43
2022-10-26T05:04:26.430Z,9.10
2022-10-26T05:06:56.327Z,9.53
2022-10-26T05:09:25.748Z,9.47
2022-10-26T05:11:57.715Z,10.43
2022-10-26T05:14:27.095Z,10.53
2022-10-26T05:16:57.978Z,10.80
2022-10-26T05:19:27.336Z,11.13
2022-10-26T05:21:56.708Z,11.30
2022-10-26T05:24:26.089Z,11.03
2022-10-26T05:26:58.059Z,11.07
2022-10-26T05:29:27.462Z,10.43
2022-10-26T05:31:56.846Z,11.50
2022-10-26T05:34:26.288Z,11.70
2022-10-26T05:36:57.151Z,12.10
2022-10-26T05:39:26.594Z,11.97
2022-10-26T05:41:58.564Z,12.03
2022-10-26T05:44:27.939Z,11.40
2022-10-26T05:46:57.298Z,12.90
2022-10-26T05:49:26.703Z,13.90
2022-10-26T05:51:56.090Z,13.23
2022-10-26T05:54:25.484Z,11.70
2022-10-26T05:56:58.305Z,12.40
2022-10-26T05:59:28.334Z,12.70
2022-10-26T06:02:07.232Z,12.63
2022-10-26T06:04:40.877Z,12.80
2022-10-26T06:07:14.475Z,12.23
2022-10-26T06:09:45.270Z,13.13
2022-10-26T06:12:19.849Z,14.90
2022-10-26T06:14:50.294Z,13.40
2022-10-26T06:17:29.137Z,14.30
2022-10-26T06:20:10.853Z,13.43
2022-10-26T06:22:50.016Z,13.10
2022-10-26T06:25:28.233Z,15.00
2022-10-26T06:28:07.959Z,14.67
2022-10-26T06:30:37.403Z,14.80
2022-10-26T06:33:18.294Z,14.23
2022-10-26T06:36:06.062Z,14.10
2022-10-26T06:38:37.752Z,15.20
2022-10-26T06:41:08.111Z,14.20
2022-10-26T06:43:40.642Z,15.13
2022-10-26T06:46:19.201Z,15.50
2022-10-26T06:48:54.557Z,14.80
2022-10-26T06:51:24.330Z,14.63
2022-10-26T06:53:58.050Z,15.03
2022-10-26T06:56:27.793Z,16.97
2022-10-26T06:59:06.297Z,15.47
2022-10-26T07:01:36.586Z,15.23
2022-10-26T07:04:06.048Z,14.97
2022-10-26T07:06:38.330Z,15.70
2022-10-26T07:09:08.828Z,15.70
2022-10-26T07:11:38.181Z,16.07
2022-10-26T07:14:10.144Z,16.00
2022-10-26T07:16:39.539Z,15.03
2022-10-26T07:19:09.147Z,15.40
2022-10-26T07:21:38.636Z,15.87
2022-10-26T07:24:08.707Z,17.93
2022-10-26T07:26:38.090Z,15.83
2022-10-26T07:29:10.025Z,17.60
2022-10-26T07:31:39.827Z,16.87
2022-10-26T07:34:09.365Z,16.50
2022-10-26T07:36:41.618Z,16.43
2022-10-26T07:39:11.383Z,18.17
2022-10-26T07:41:40.851Z,16.33
2022-10-26T07:44:12.852Z,18.40
2022-10-26T07:46:42.304Z,16.03
2022-10-26T07:49:11.735Z,16.53
2022-10-26T07:51:41.113Z,17.00
2022-10-26T07:54:10.706Z,17.30
2022-10-26T07:56:40.074Z,16.10
2022-10-26T07:59:14.290Z,15.37
2022-10-26T08:01:43.723Z,17.90
2022-10-26T08:04:13.419Z,15.50
2022-10-26T08:06:42.905Z,15.73
2022-10-26T08:09:12.293Z,16.27
2022-10-26T08:11:41.680Z,14.73
2022-10-26T08:14:13.870Z,15.27
2022-10-26T08:16:43.354Z,15.47
2022-10-26T08:19:12.783Z,15.40
2022-10-26T08:21:42.274Z,14.87
2022-10-26T08:24:11.929Z,15.90
2022-10-26T08:26:41.383Z,17.67
2022-10-26T08:29:13.548Z,14.53
2022-10-26T08:31:42.962Z,17.20
2022-10-26T08:34:12.371Z,14.13
2022-10-26T08:36:41.976Z,13.97
2022-10-26T08:39:11.368Z,26.53
2022-10-26T08:41:44.219Z,12.80
2022-10-26T08:44:25.625Z,13.10
2022-10-26T08:46:58.094Z,12.57
2022-10-26T08:49:30.073Z,15.27
2022-10-26T08:52:03.137Z,13.00
2022-10-26T08:54:38.950Z,11.90
2022-10-26T08:57:17.385Z,16.87
2022-10-26T08:59:53.400Z,11.27
2022-10-26T09:02:24.853Z,11.20
2022-10-26T09:04:55.148Z,13.17
2022-10-26T09:07:45.565Z,12.03
2022-10-26T09:10:25.736Z,10.37
2022-10-26T09:12:58.599Z,9.23
2022-10-26T09:15:37.657Z,12.70
2022-10-26T09:18:16.914Z,11.23
2022-10-26T09:20:53.961Z,10.07
2022-10-26T09:23:34.235Z,8.57
2022-10-26T09:26:05.826Z,9.63
2022-10-26T09:28:38.194Z,9.50
2022-10-26T09:31:16.728Z,10.90
2022-10-26T09:33:46.264Z,8.57
2022-10-26T09:36:17.362Z,7.90
2022-10-26T09:38:51.139Z,8.30
2022-10-26T09:41:29.556Z,8.63
2022-10-26T09:44:06.089Z,7.50
2022-10-26T09:46:56.298Z,7.70
2022-10-26T09:49:31.295Z,6.20
2022-10-26T09:52:01.039Z,6.30
2022-10-26T09:54:30.560Z,6.23
2022-10-26T09:57:02.200Z,5.80
2022-10-26T09:59:33.582Z,4.87
2022-10-26T10:02:09.254Z,6.00
2022-10-26T10:04:38.808Z,5.63
2022-10-26T10:07:15.906Z,5.63
2022-10-26T10:09:45.314Z,4.93
2022-10-26T10:12:22.633Z,4.90
2022-10-26T10:14:59.504Z,5.10
2022-10-26T10:17:31.472Z,4.70
2022-10-26T10:20:12.740Z,4.27
2022-10-26T10:22:56.067Z,4.03
2022-10-26T10:25:30.407Z,4.53
2022-10-26T10:27:59.877Z,3.97
2022-10-26T10:30:32.174Z,3.80
2022-10-26T10:33:12.714Z,4.20
2022-10-26T10:35:43.236Z,3.93
2022-10-26T10:38:18.351Z,3.47
2022-10-26T10:40:53.098Z,4.03
2022-10-26T10:43:22.916Z,4.50
2022-10-26T10:45:57.161Z,3.30
2022-10-26T10:48:34.563Z,5.30
2022-10-26T10:51:12.599Z,4.00
2022-10-26T10:53:48.416Z,4.70
2022-10-26T10:56:27.273Z,3.97
2022-10-26T10:59:08.717Z,4.23
2022-10-26T11:01:42.045Z,4.20
2022-10-26T11:04:25.464Z,3.77
2022-10-26T11:06:57.489Z,4.43
2022-10-26T11:09:29.476Z,4.70
2022-10-26T11:12:01.888Z,3.60
2022-10-26T11:14:34.161Z,3.80
2022-10-26T11:17:07.622Z,4.40
2022-10-26T11:19:45.114Z,7.63
2022-10-26T11:22:18.355Z,4.70
2022-10-26T11:24:52.195Z,3.70
2022-10-26T11:27:24.889Z,4.20
2022-10-26T11:29:59.014Z,4.73
2022-10-26T11:32:31.753Z,8.00
2022-10-26T11:35:12.188Z,5.10
2022-10-26T11:37:47.215Z,14.63
2022-10-26T11:40:25.105Z,5.67
2022-10-26T11:42:59.890Z,3.90
2022-10-26T11:45:32.943Z,4.73
2022-10-26T11:48:09.127Z,3.80
2022-10-26T11:50:44.609Z,4.40
2022-10-26T11:53:17.459Z,4.47
2022-10-26T11:55:50.570Z,5.37
2022-10-26T11:58:20.425Z,5.00
2022-10-26T12:00:52.735Z,5.17
2022-10-26T12:03:27.095Z,5.70
2022-10-26T12:05:59.262Z,4.20
2022-10-26T12:08:30.900Z,5.93
2022-10-26T12:11:05.214Z,4.83
2022-10-26T12:13:38.013Z,4.50
2022-10-26T12:16:11.979Z,3.70
2022-10-26T12:19:00.773Z,4.60
2022-10-26T12:21:33.904Z,9.80
2022-10-26T12:24:05.049Z,5.93
2022-10-26T12:26:42.434Z,7.43
2022-10-26T12:29:38.118Z,4.70
2022-10-26T12:32:52.545Z,5.73
2022-10-26T12:35:52.141Z,4.37
2022-10-26T12:39:02.145Z,4.03
2022-10-26T12:41:33.216Z,3.77
2022-10-26T12:44:09.852Z,3.80
2022-10-26T12:46:43.739Z,3.77
2022-10-26T12:49:43.461Z,3.73
2022-10-26T12:52:44.397Z,3.70
2022-10-26T12:55:51.279Z,3.07
2022-10-26T12:58:46.664Z,3.93
2022-10-26T13:01:27.378Z,4.67
2022-10-26T13:04:07.382Z,5.07
2022-10-26T13:06:46.289Z,5.07
2022-10-26T13:09:20.272Z,4.60
2022-10-26T13:11:55.793Z,3.73
2022-10-26T13:14:29.073Z,7.10
2022-10-26T13:16:58.747Z,3.80
2022-10-26T13:19:29.658Z,4.17
2022-10-26T13:22:00.926Z,4.00
2022-10-26T13:24:32.477Z,4.77
2022-10-26T13:27:40.571Z,3.40
2022-10-26T13:30:41.205Z,2.90
2022-10-26T13:33:16.049Z,3.67
2022-10-26T13:35:46.182Z,3.10
2022-10-26T13:38:16.134Z,3.00
2022-10-26T13:40:46.438Z,3.03
2022-10-26T13:43:21.674Z,2.83
2022-10-26T13:45:57.909Z,2.80
2022-10-26T13:48:33.591Z,3.20
2022-10-26T13:51:05.563Z,3.03
2022-10-26T13:53:41.740Z,2.67
2022-10-26T13:56:18.367Z,3.40
2022-10-26T13:58:50.464Z,3.33
2022-10-26T14:01:28.775Z,2.50
2022-10-26T14:03:58.648Z,2.87
2022-10-26T14:06:31.977Z,2.90
2022-10-26T14:09:03.380Z,2.60
2022-10-26T14:11:37.227Z,2.80
2022-10-26T14:14:07.381Z,3.20
2022-10-26T14:16:39.471Z,1.90
2022-10-26T14:19:08.889Z,2.60
2022-10-26T14:21:43.184Z,3.40
2022-10-26T14:24:31.427Z,2.83
2022-10-26T14:27:18.032Z,4.33
2022-10-26T14:30:03.736Z,7.00
2022-10-26T14:32:39.634Z,2.87
2022-10-26T14:35:14.815Z,3.50
2022-10-26T14:37:48.331Z,2.70
2022-10-26T14:40:20.354Z,3.67
2022-10-26T14:42:52.988Z,2.73
2022-10-26T14:48:30.374Z,3.07
2022-10-26T14:51:04.171Z,3.63
2022-10-26T14:53:40.221Z,4.07
2022-10-26T14:56:26.532Z,3.60
2022-10-26T14:58:56.369Z,5.20
2022-10-26T15:01:36.751Z,2.83
2022-10-26T15:04:09.927Z,3.17
2022-10-26T15:06:45.362Z,3.40
2022-10-26T15:09:34.440Z,4.40
2022-10-26T15:12:05.653Z,3.93
2022-10-26T15:14:36.565Z,3.60
2022-10-26T15:17:06.145Z,3.00
2022-10-26T15:19:40.034Z,4.67
2022-10-26T15:22:18.678Z,3.67
2022-10-26T15:24:48.230Z,4.13
2022-10-26T15:27:18.613Z,3.13
2022-10-26T15:29:49.580Z,3.17
2022-10-26T15:32:30.874Z,5.00
2022-10-26T15:35:34.783Z,2.87
2022-10-26T15:38:04.249Z,2.80
2022-10-26T15:40:37.006Z,2.77
2022-10-26T15:43:06.418Z,2.87
2022-10-26T15:45:39.168Z,2.40
2022-10-26T15:48:25.666Z,2.33
2022-10-26T15:50:58.094Z,2.40
2022-10-26T15:53:29.290Z,3.10
2022-10-26T15:56:01.082Z,2.63
2022-10-26T15:58:31.252Z,2.40
2022-10-26T16:01:00.757Z,3.00
2022-10-26T16:03:30.526Z,3.30
2022-10-26T16:06:04.314Z,3.47
2022-10-26T16:08:34.349Z,2.83
2022-10-26T16:11:03.777Z,2.93
2022-10-26T16:13:33.488Z,3.30
2022-10-26T16:16:03.093Z,2.50
2022-10-26T16:18:32.612Z,4.10
2022-10-26T16:21:04.663Z,3.60
2022-10-26T16:23:34.174Z,3.63
2022-10-26T16:26:03.647Z,3.00
2022-10-26T16:28:33.546Z,2.67
2022-10-26T16:31:03.097Z,3.60
2022-10-26T16:33:32.887Z,3.07
2022-10-26T16:36:05.157Z,3.03
2022-10-26T16:38:35.113Z,2.77
2022-10-26T16:41:05.143Z,2.60
2022-10-26T16:43:35.651Z,3.10
2022-10-26T16:46:08.321Z,2.70
2022-10-26T16:48:39.142Z,2.70
2022-10-26T16:51:14.644Z,2.90
2022-10-26T16:53:44.988Z,3.57
2022-10-26T16:56:16.224Z,3.33
2022-10-26T16:58:45.917Z,3.00
2022-10-26T17:01:18.228Z,7.50
2022-10-26T17:03:48.014Z,3.93
2022-10-26T17:06:21.610Z,3.70
2022-10-26T17:08:51.150Z,3.10
2022-10-26T17:11:22.077Z,3.70
2022-10-26T17:13:56.309Z,3.53
2022-10-26T17:16:27.226Z,3.07
2022-10-26T17:18:56.893Z,3.43
2022-10-26T17:21:35.952Z,3.70
2022-10-26T17:24:06.769Z,4.30
2022-10-26T17:26:36.284Z,4.07
2022-10-26T17:29:06.105Z,4.13
2022-10-26T17:31:36.080Z,5.60
2022-10-26T17:34:05.590Z,4.03
2022-10-26T17:36:37.689Z,3.50
2022-10-26T17:39:07.783Z,3.90
2022-10-26T17:41:37.281Z,5.70
2022-10-26T17:44:07.230Z,3.67
2022-10-26T17:46:36.714Z,4.57
2022-10-26T17:49:06.265Z,4.40
2022-10-26T17:51:38.475Z,3.90
2022-10-26T17:54:08.465Z,4.33
2022-10-26T17:56:39.265Z,5.00
2022-10-26T17:59:11.725Z,4.10
2022-10-26T18:01:41.405Z,6.10
2022-10-26T18:04:11.049Z,4.50
2022-10-26T18:06:43.133Z,4.10
2022-10-26T18:09:12.816Z,4.30
2022-10-26T18:11:42.311Z,4.87
2022-10-26T18:14:13.133Z,4.30
2022-10-26T18:16:42.604Z,3.77
2022-10-26T18:19:12.764Z,4.57
2022-10-26T18:21:44.893Z,4.33
2022-10-26T18:24:14.446Z,4.07
2022-10-26T18:26:43.998Z,4.10
2022-10-26T18:29:14.786Z,4.20
2022-10-26T18:31:44.361Z,5.00
2022-10-26T18:34:13.836Z,4.07
2022-10-26T18:36:45.903Z,4.73
2022-10-26T18:39:15.382Z,3.70
2022-10-26T18:41:45.196Z,4.10
2022-10-26T18:44:14.825Z,4.50
2022-10-26T18:46:47.778Z,4.37
2022-10-26T18:49:19.374Z,4.40
2022-10-26T18:51:51.578Z,4.10
2022-10-26T18:54:21.027Z,4.07
2022-10-26T18:56:50.577Z,4.07
2022-10-26T18:59:20.020Z,3.87
2022-10-26T19:01:49.762Z,4.50
2022-10-26T19:04:19.697Z,3.57
2022-10-26T19:06:51.772Z,4.10
2022-10-26T19:09:21.944Z,4.20
2022-10-26T19:11:51.440Z,3.57
2022-10-26T19:14:20.931Z,3.73
2022-10-26T19:16:53.033Z,4.20
2022-10-26T19:19:25.313Z,3.67
2022-10-26T19:21:59.375Z,4.03
2022-10-26T19:24:28.917Z,4.57
2022-10-26T19:26:59.033Z,4.37
2022-10-26T19:29:28.552Z,4.30
2022-10-26T19:31:58.013Z,4.20
2022-10-26T19:34:27.429Z,3.87
2022-10-26T19:36:59.430Z,4.53
2022-10-26T19:39:28.923Z,4.23
2022-10-26T19:41:58.424Z,4.07
2022-10-26T19:44:27.949Z,3.80
2022-10-26T19:46:57.422Z,4.33
2022-10-26T19:49:30.317Z,3.40
2022-10-26T19:52:02.675Z,3.57
2022-10-26T19:54:32.185Z,3.60
2022-10-26T19:57:02.614Z,3.87
2022-10-26T19:59:32.155Z,4.00
2022-10-26T20:02:01.694Z,4.13
2022-10-26T20:04:31.157Z,4.87
2022-10-26T20:07:03.248Z,4.27
2022-10-26T20:09:32.925Z,5.17
2022-10-26T20:12:02.400Z,4.70
2022-10-26T20:14:31.847Z,4.40
2022-10-26T20:17:01.338Z,4.50
2022-10-26T20:19:30.847Z,4.70
2022-10-26T20:22:03.036Z,4.43
2022-10-26T20:24:32.553Z,4.27
2022-10-26T20:27:02.028Z,5.40
2022-10-26T20:29:31.542Z,5.73
2022-10-26T20:32:01.051Z,4.90
2022-10-26T20:34:30.522Z,7.00
2022-10-26T20:37:00.038Z,6.43
2022-10-26T20:39:33.006Z,5.47
2022-10-26T20:42:03.044Z,5.17
2022-10-26T20:44:34.780Z,4.93
2022-10-26T20:47:04.877Z,5.27
2022-10-26T20:49:35.210Z,4.90
2022-10-26T20:52:20.830Z,5.43
2022-10-26T20:54:58.325Z,4.90
2022-10-26T20:57:32.109Z,8.23
2022-10-26T21:00:09.053Z,22.10
2022-10-26T21:02:38.770Z,20.00
2022-10-26T21:05:09.217Z,6.50
2022-10-26T21:07:38.666Z,6.40
2022-10-26T21:10:11.571Z,5.90
2022-10-26T21:12:41.108Z,11.27
2022-10-26T21:15:11.968Z,7.90
2022-10-26T21:17:41.907Z,6.10
2022-10-26T21:20:12.033Z,6.80
2022-10-26T21:22:41.522Z,6.67
2022-10-26T21:25:13.849Z,6.77
2022-10-26T21:27:43.313Z,6.70
2022-10-26T21:30:14.661Z,6.87
2022-10-26T21:32:44.187Z,6.50
2022-10-26T21:35:13.724Z,6.80
2022-10-26T21:37:43.224Z,7.47
2022-10-26T21:40:16.279Z,7.30
2022-10-26T21:42:47.893Z,7.03
2022-10-26T21:45:17.619Z,7.70
2022-10-26T21:47:47.855Z,8.77
2022-10-26T21:50:17.600Z,8.10
2022-10-26T21:52:47.182Z,8.10
2022-10-26T21:55:19.346Z,8.20
2022-10-26T21:57:48.930Z,8.27
2022-10-26T22:00:19.526Z,9.07
2022-10-26T22:02:49.352Z,9.23
2022-10-26T22:05:19.010Z,9.27
2022-10-26T22:07:49.244Z,9.77
2022-10-26T22:10:22.868Z,9.30
2022-10-26T22:12:52.415Z,9.13
2022-10-26T22:15:21.877Z,10.00
2022-10-26T22:17:51.516Z,9.60
2022-10-26T22:20:21.209Z,9.80
2022-10-26T22:22:50.666Z,11.27
2022-10-26T22:25:22.744Z,10.07
2022-10-26T22:27:52.401Z,10.13
2022-10-26T22:30:22.060Z,11.07
2022-10-26T22:32:51.817Z,11.20
2022-10-26T22:35:29.379Z,10.03
2022-10-26T22:37:59.183Z,12.07
2022-10-26T22:40:31.249Z,10.93
2022-10-26T22:43:03.002Z,11.70
2022-10-26T22:45:32.522Z,11.30
2022-10-26T22:48:02.043Z,12.70
2022-10-26T22:50:31.582Z,11.67
2022-10-26T22:53:01.046Z,11.93
2022-10-26T22:55:33.257Z,12.40
2022-10-26T22:58:02.669Z,11.97
2022-10-26T23:00:32.072Z,12.77
2022-10-26T23:03:01.515Z,12.87
2022-10-26T23:05:30.992Z,13.33
2022-10-26T23:08:00.461Z,12.77
2022-10-26T23:10:30.016Z,12.67
2022-10-26T23:15:51.468Z,14.23
2022-10-26T23:18:20.985Z,13.27
2022-10-26T23:20:51.188Z,14.40
2022-10-26T23:23:20.910Z,13.73
2022-10-26T23:25:50.382Z,14.30
2022-10-26T23:28:22.501Z,12.63
2022-10-26T23:30:51.976Z,14.23
2022-10-26T23:33:21.481Z,13.47
2022-10-26T23:35:52.313Z,14.67
2022-10-26T23:38:22.866Z,13.90
2022-10-26T23:40:56.449Z,12.87
2022-10-26T23:43:29.643Z,13.67
2022-10-26T23:45:59.498Z,13.90
2022-10-26T23:48:28.978Z,13.50
2022-10-26T23:50:58.518Z,14.53
2022-10-26T23:53:28.565Z,14.57
2022-10-26T23:55:59.066Z,14.17
2022-10-26T23:58:31.082Z,13.67
